sensor_id;sensor_type;location;lat;lon;timestamp;pressure;altitude;pressure_sealevel;temperature;humidity
72061;BME280;59925;52.136;5.420;2024-03-23T00:55:34;101145.97;;;6.76;100.00
72061;BME280;59925;52.136;5.420;2024-03-23T00:58:00;101144.13;;;6.77;100.00
72061;BME280;59925;52.136;5.420;2024-03-23T01:00:25;101141.22;;;6.78;100.00
72061;BME280;59925;52.136;5.420;2024-03-23T01:02:51;101145.97;;;6.76;100.00
72061;BME280;59925;52.136;5.420;2024-03-23T01:05:16;101143.09;;;6.78;100.00
72061;BME280;59925;52.136;5.420;2024-03-23T01:07:42;101146.56;;;6.78;100.00
72061;BME280;59925;52.136;5.420;2024-03-23T01:10:08;101140.09;;;6.74;100.00
72061;BME280;59925;52.136;5.420;2024-03-23T01:12:33;101138.47;;;6.73;100.00
72061;BME280;59925;52.136;5.420;2024-03-23T01:14:59;101137.44;;;6.74;100.00
72061;BME280;59925;52.136;5.420;2024-03-23T01:17:24;101130.47;;;6.73;100.00
72061;BME280;59925;52.136;5.420;2024-03-23T01:19:50;101127.25;;;6.71;100.00
72061;BME280;59925;52.136;5.420;2024-03-23T01:22:15;101120.28;;;6.70;100.00
72061;BME280;59925;52.136;5.420;2024-03-23T01:24:41;101116.81;;;6.69;100.00
72061;BME280;59925;52.136;5.420;2024-03-23T01:27:08;101112.28;;;6.70;100.00
72061;BME280;59925;52.136;5.420;2024-03-23T01:29:34;101108.00;;;6.69;100.00
72061;BME280;59925;52.136;5.420;2024-03-23T01:31:59;101111.47;;;6.69;100.00
72061;BME280;59925;52.136;5.420;2024-03-23T01:34:25;101108.81;;;6.69;100.00
72061;BME280;59925;52.136;5.420;2024-03-23T01:36:51;101104.78;;;6.67;100.00
72061;BME280;59925;52.136;5.420;2024-03-23T01:39:16;101099.69;;;6.65;100.00
72061;BME280;59925;52.136;5.420;2024-03-23T01:41:42;101089.50;;;6.62;100.00
72061;BME280;59925;52.136;5.420;2024-03-23T01:44:08;101086.50;;;6.58;100.00
72061;BME280;59925;52.136;5.420;2024-03-23T01:46:37;101086.97;;;6.55;100.00
72061;BME280;59925;52.136;5.420;2024-03-23T01:49:04;101081.31;;;6.52;100.00
72061;BME280;59925;52.136;5.420;2024-03-23T01:51:30;101087.81;;;6.44;100.00
72061;BME280;59925;52.136;5.420;2024-03-23T01:53:58;101077.75;;;6.34;100.00
72061;BME280;59925;52.136;5.420;2024-03-23T01:56:26;101076.25;;;6.26;100.00
72061;BME280;59925;52.136;5.420;2024-03-23T01:58:51;101077.22;;;6.20;100.00
72061;BME280;59925;52.136;5.420;2024-03-23T02:01:17;101075.22;;;6.16;100.00
72061;BME280;59925;52.136;5.420;2024-03-23T02:03:42;101073.28;;;6.11;100.00
72061;BME280;59925;52.136;5.420;2024-03-23T02:06:08;101069.94;;;6.04;100.00
72061;BME280;59925;52.136;5.420;2024-03-23T02:08:34;101075.34;;;5.97;100.00
72061;BME280;59925;52.136;5.420;2024-03-23T02:10:59;101074.44;;;5.91;100.00
72061;BME280;59925;52.136;5.420;2024-03-23T02:13:25;101072.47;;;5.87;100.00
72061;BME280;59925;52.136;5.420;2024-03-23T02:15:50;101071.75;;;5.79;100.00
72061;BME280;59925;52.136;5.420;2024-03-23T02:18:16;101075.34;;;5.73;100.00
72061;BME280;59925;52.136;5.420;2024-03-23T02:20:42;101072.81;;;5.66;100.00
72061;BME280;59925;52.136;5.420;2024-03-23T02:23:17;101075.09;;;5.63;100.00
72061;BME280;59925;52.136;5.420;2024-03-23T02:25:45;101070.47;;;5.58;100.00
72061;BME280;59925;52.136;5.420;2024-03-23T02:28:11;101068.28;;;5.55;100.00
72061;BME280;59925;52.136;5.420;2024-03-23T02:30:37;101059.94;;;5.51;100.00
72061;BME280;59925;52.136;5.420;2024-03-23T02:33:03;101058.22;;;5.45;100.00
72061;BME280;59925;52.136;5.420;2024-03-23T02:35:29;101054.63;;;5.40;100.00
72061;BME280;59925;52.136;5.420;2024-03-23T02:37:55;101049.50;;;5.38;100.00
72061;BME280;59925;52.136;5.420;2024-03-23T02:40:23;101051.72;;;5.29;100.00
72061;BME280;59925;52.136;5.420;2024-03-23T02:42:49;101054.25;;;5.24;100.00
72061;BME280;59925;52.136;5.420;2024-03-23T02:45:14;101050.06;;;5.16;100.00
72061;BME280;59925;52.136;5.420;2024-03-23T02:47:40;101054.59;;;5.16;100.00
72061;BME280;59925;52.136;5.420;2024-03-23T02:50:06;101049.13;;;5.11;100.00
72061;BME280;59925;52.136;5.420;2024-03-23T02:52:32;101054.88;;;5.07;100.00
72061;BME280;59925;52.136;5.420;2024-03-23T02:54:57;101052.69;;;5.04;100.00
72061;BME280;59925;52.136;5.420;2024-03-23T02:57:23;101052.56;;;4.99;100.00
72061;BME280;59925;52.136;5.420;2024-03-23T02:59:49;101053.59;;;4.98;100.00
72061;BME280;59925;52.136;5.420;2024-03-23T03:02:16;101051.97;;;4.97;100.00
72061;BME280;59925;52.136;5.420;2024-03-23T03:04:41;101049.78;;;4.94;100.00
72061;BME280;59925;52.136;5.420;2024-03-23T03:07:07;101045.50;;;4.93;100.00
72061;BME280;59925;52.136;5.420;2024-03-23T03:09:33;101058.19;;;4.91;100.00
72061;BME280;59925;52.136;5.420;2024-03-23T03:12:01;101052.31;;;4.89;100.00
72061;BME280;59925;52.136;5.420;2024-03-23T03:14:27;101053.56;;;4.86;100.00
72061;BME280;59925;52.136;5.420;2024-03-23T03:16:53;101049.28;;;4.85;100.00
72061;BME280;59925;52.136;5.420;2024-03-23T03:19:19;101050.53;;;4.83;100.00
72061;BME280;59925;52.136;5.420;2024-03-23T03:21:44;101050.41;;;4.78;100.00
72061;BME280;59925;52.136;5.420;2024-03-23T03:24:10;101049.25;;;4.73;100.00
72061;BME280;59925;52.136;5.420;2024-03-23T03:26:36;101047.63;;;4.72;100.00
72061;BME280;59925;52.136;5.420;2024-03-23T03:29:02;101049.69;;;4.70;100.00
72061;BME280;59925;52.136;5.420;2024-03-23T03:31:28;101050.97;;;4.68;100.00
72061;BME280;59925;52.136;5.420;2024-03-23T03:33:53;101045.84;;;4.66;100.00
72061;BME280;59925;52.136;5.420;2024-03-23T03:36:19;101048.59;;;4.59;100.00
72061;BME280;59925;52.136;5.420;2024-03-23T03:38:45;101036.59;;;4.57;100.00
72061;BME280;59925;52.136;5.420;2024-03-23T03:41:11;101035.78;;;4.56;100.00
72061;BME280;59925;52.136;5.420;2024-03-23T03:43:36;101036.00;;;4.55;100.00
72061;BME280;59925;52.136;5.420;2024-03-23T03:46:02;101032.75;;;4.53;100.00
72061;BME280;59925;52.136;5.420;2024-03-23T03:48:28;101023.63;;;4.49;100.00
72061;BME280;59925;52.136;5.420;2024-03-23T03:50:54;101031.00;;;4.47;100.00
72061;BME280;59925;52.136;5.420;2024-03-23T03:53:20;101025.91;;;4.45;100.00
72061;BME280;59925;52.136;5.420;2024-03-23T03:55:45;101021.84;;;4.42;100.00
72061;BME280;59925;52.136;5.420;2024-03-23T03:58:11;101025.97;;;4.38;100.00
72061;BME280;59925;52.136;5.420;2024-03-23T04:00:36;101024.81;;;4.34;100.00
72061;BME280;59925;52.136;5.420;2024-03-23T04:03:02;101023.63;;;4.30;100.00
72061;BME280;59925;52.136;5.420;2024-03-23T04:05:28;101026.38;;;4.23;100.00
72061;BME280;59925;52.136;5.420;2024-03-23T04:07:54;101026.22;;;4.18;100.00
72061;BME280;59925;52.136;5.420;2024-03-23T04:10:20;101023.00;;;4.16;100.00
72061;BME280;59925;52.136;5.420;2024-03-23T04:12:46;101019.50;;;4.16;100.00
72061;BME280;59925;52.136;5.420;2024-03-23T04:15:12;101015.66;;;4.11;100.00
72061;BME280;59925;52.136;5.420;2024-03-23T04:17:38;101014.28;;;4.09;100.00
72061;BME280;59925;52.136;5.420;2024-03-23T04:20:04;101011.63;;;4.09;100.00
72061;BME280;59925;52.136;5.420;2024-03-23T04:22:34;101016.56;;;4.05;100.00
72061;BME280;59925;52.136;5.420;2024-03-23T04:25:00;101009.47;;;3.99;100.00
72061;BME280;59925;52.136;5.420;2024-03-23T04:27:28;101012.00;;;3.94;100.00
72061;BME280;59925;52.136;5.420;2024-03-23T04:29:54;101009.41;;;3.87;100.00
72061;BME280;59925;52.136;5.420;2024-03-23T04:32:19;101014.19;;;3.78;100.00
72061;BME280;59925;52.136;5.420;2024-03-23T04:34:45;101006.47;;;3.77;100.00
72061;BME280;59925;52.136;5.420;2024-03-23T04:37:11;101004.63;;;3.77;100.00
72061;BME280;59925;52.136;5.420;2024-03-23T04:39:37;101001.97;;;3.77;100.00
72061;BME280;59925;52.136;5.420;2024-03-23T04:42:03;101008.06;;;3.78;100.00
72061;BME280;59925;52.136;5.420;2024-03-23T04:44:29;100996.91;;;3.76;100.00
72061;BME280;59925;52.136;5.420;2024-03-23T04:46:56;101015.66;;;3.74;100.00
72061;BME280;59925;52.136;5.420;2024-03-23T04:49:22;101018.53;;;3.73;100.00
72061;BME280;59925;52.136;5.420;2024-03-23T04:51:48;101015.66;;;3.74;100.00
72061;BME280;59925;52.136;5.420;2024-03-23T04:54:13;101008.72;;;3.73;100.00
72061;BME280;59925;52.136;5.420;2024-03-23T04:56:39;101010.16;;;3.76;100.00
72061;BME280;59925;52.136;5.420;2024-03-23T04:59:04;100999.31;;;3.77;100.00
72061;BME280;59925;52.136;5.420;2024-03-23T05:01:31;100999.31;;;3.77;100.00
72061;BME280;59925;52.136;5.420;2024-03-23T05:03:57;101007.50;;;3.76;100.00
72061;BME280;59925;52.136;5.420;2024-03-23T05:06:23;101006.31;;;3.72;100.00
72061;BME280;59925;52.136;5.420;2024-03-23T05:08:49;101005.34;;;3.66;100.00
72061;BME280;59925;52.136;5.420;2024-03-23T05:11:15;101007.63;;;3.62;100.00
72061;BME280;59925;52.136;5.420;2024-03-23T05:13:41;101005.19;;;3.61;100.00
72061;BME280;59925;52.136;5.420;2024-03-23T05:16:07;101012.53;;;3.59;100.00
72061;BME280;59925;52.136;5.420;2024-03-23T05:18:34;101002.41;;;3.56;100.00
72061;BME280;59925;52.136;5.420;2024-03-23T05:20:59;101010.16;;;3.50;100.00
72061;BME280;59925;52.136;5.420;2024-03-23T05:23:26;101004.50;;;3.47;100.00
72061;BME280;59925;52.136;5.420;2024-03-23T05:25:52;101009.22;;;3.45;100.00
72061;BME280;59925;52.136;5.420;2024-03-23T05:28:18;101010.00;;;3.45;100.00
72061;BME280;59925;52.136;5.420;2024-03-23T05:30:44;101009.44;;;3.43;100.00
72061;BME280;59925;52.136;5.420;2024-03-23T05:33:09;101012.28;;;3.42;100.00
72061;BME280;59925;52.136;5.420;2024-03-23T05:35:35;101015.16;;;3.40;100.00
72061;BME280;59925;52.136;5.420;2024-03-23T05:38:00;101011.91;;;3.38;100.00
72061;BME280;59925;52.136;5.420;2024-03-23T05:40:26;101013.53;;;3.39;100.00
72061;BME280;59925;52.136;5.420;2024-03-23T05:42:52;101008.59;;;3.43;100.00
72061;BME280;59925;52.136;5.420;2024-03-23T05:45:21;101009.81;;;3.47;100.00
72061;BME280;59925;52.136;5.420;2024-03-23T05:47:48;101007.09;;;3.53;100.00
72061;BME280;59925;52.136;5.420;2024-03-23T05:50:14;101011.50;;;3.60;100.00
72061;BME280;59925;52.136;5.420;2024-03-23T05:52:39;101016.97;;;3.65;100.00
72061;BME280;59925;52.136;5.420;2024-03-23T05:55:06;100999.81;;;3.67;100.00
72061;BME280;59925;52.136;5.420;2024-03-23T05:57:32;101005.72;;;3.70;100.00
72061;BME280;59925;52.136;5.420;2024-03-23T05:59:57;101001.81;;;3.72;100.00
72061;BME280;59925;52.136;5.420;2024-03-23T06:02:24;101004.84;;;3.76;100.00
72061;BME280;59925;52.136;5.420;2024-03-23T06:04:49;101004.84;;;3.76;100.00
72061;BME280;59925;52.136;5.420;2024-03-23T06:07:15;100995.41;;;3.80;100.00
72061;BME280;59925;52.136;5.420;2024-03-23T06:09:41;101002.13;;;3.82;100.00
72061;BME280;59925;52.136;5.420;2024-03-23T06:12:07;101002.94;;;3.83;100.00
72061;BME280;59925;52.136;5.420;2024-03-23T06:14:33;101002.94;;;3.83;100.00
72061;BME280;59925;52.136;5.420;2024-03-23T06:16:59;101000.03;;;3.84;100.00
72061;BME280;59925;52.136;5.420;2024-03-23T06:19:25;101009.06;;;3.83;100.00
72061;BME280;59925;52.136;5.420;2024-03-23T06:21:54;101007.22;;;3.84;100.00
72061;BME280;59925;52.136;5.420;2024-03-23T06:24:23;101002.13;;;3.82;100.00
72061;BME280;59925;52.136;5.420;2024-03-23T06:26:49;101005.34;;;3.84;100.00
72061;BME280;59925;52.136;5.420;2024-03-23T06:29:15;100989.84;;;3.88;100.00
72061;BME280;59925;52.136;5.420;2024-03-23T06:31:41;100989.97;;;3.93;100.00
72061;BME280;59925;52.136;5.420;2024-03-23T06:34:06;100990.03;;;4.05;100.00
72061;BME280;59925;52.136;5.420;2024-03-23T06:36:32;100990.31;;;4.16;100.00
72061;BME280;59925;52.136;5.420;2024-03-23T06:38:58;100989.22;;;4.23;100.00
72061;BME280;59925;52.136;5.420;2024-03-23T06:41:24;100993.41;;;4.31;100.00
72061;BME280;59925;52.136;5.420;2024-03-23T06:43:50;100988.00;;;4.38;100.00
72061;BME280;59925;52.136;5.420;2024-03-23T06:46:16;100984.25;;;4.45;100.00
72061;BME280;59925;52.136;5.420;2024-03-23T06:48:41;100985.78;;;4.53;100.00
72061;BME280;59925;52.136;5.420;2024-03-23T06:51:07;100982.44;;;4.58;100.00
72061;BME280;59925;52.136;5.420;2024-03-23T06:53:32;100976.22;;;4.64;100.00
72061;BME280;59925;52.136;5.420;2024-03-23T06:55:58;100986.09;;;4.75;100.00
72061;BME280;59925;52.136;5.420;2024-03-23T06:58:25;100983.69;;;4.86;100.00
72061;BME280;59925;52.136;5.420;2024-03-23T07:00:50;100989.25;;;4.96;100.00
72061;BME280;59925;52.136;5.420;2024-03-23T07:03:16;100986.84;;;5.06;100.00
72061;BME280;59925;52.136;5.420;2024-03-23T07:05:42;100996.22;;;5.21;100.00
72061;BME280;59925;52.136;5.420;2024-03-23T07:08:08;100996.59;;;5.36;100.00
72061;BME280;59925;52.136;5.420;2024-03-23T07:10:34;100994.16;;;5.35;100.00
72061;BME280;59925;52.136;5.420;2024-03-23T07:13:01;100989.88;;;5.46;100.00
72061;BME280;59925;52.136;5.420;2024-03-23T07:15:26;100994.75;;;5.61;100.00
72061;BME280;59925;52.136;5.420;2024-03-23T07:17:52;100996.13;;;5.75;100.00
72061;BME280;59925;52.136;5.420;2024-03-23T07:20:17;100991.09;;;5.91;100.00
72061;BME280;59925;52.136;5.420;2024-03-23T07:22:45;100987.19;;;6.05;100.00
72061;BME280;59925;52.136;5.420;2024-03-23T07:25:11;100992.69;;;6.16;100.00
72061;BME280;59925;52.136;5.420;2024-03-23T07:27:36;100995.44;;;6.33;100.00
72061;BME280;59925;52.136;5.420;2024-03-23T07:30:02;100992.84;;;6.50;100.00
72061;BME280;59925;52.136;5.420;2024-03-23T07:32:27;100994.88;;;6.59;100.00
72061;BME280;59925;52.136;5.420;2024-03-23T07:34:53;100989.63;;;7.28;100.00
72061;BME280;59925;52.136;5.420;2024-03-23T07:37:18;100985.22;;;7.39;100.00
72061;BME280;59925;52.136;5.420;2024-03-23T07:39:44;100986.84;;;7.40;100.00
72061;BME280;59925;52.136;5.420;2024-03-23T07:42:09;100996.22;;;7.42;100.00
72061;BME280;59925;52.136;5.420;2024-03-23T07:44:35;100985.50;;;7.37;100.00
72061;BME280;59925;52.136;5.420;2024-03-23T07:47:01;100989.06;;;7.26;100.00
72061;BME280;59925;52.136;5.420;2024-03-23T07:49:26;100998.84;;;7.20;100.00
72061;BME280;59925;52.136;5.420;2024-03-23T07:51:52;100993.16;;;7.16;100.00
72061;BME280;59925;52.136;5.420;2024-03-23T07:54:17;100989.63;;;8.83;100.00
72061;BME280;59925;52.136;5.420;2024-03-23T07:56:43;100996.53;;;9.07;100.00
72061;BME280;59925;52.136;5.420;2024-03-23T07:59:09;100989.97;;;8.37;100.00
72061;BME280;59925;52.136;5.420;2024-03-23T08:01:34;100998.00;;;7.93;100.00
72061;BME280;59925;52.136;5.420;2024-03-23T08:04:00;100995.75;;;7.85;100.00
72061;BME280;59925;52.136;5.420;2024-03-23T08:06:25;100997.13;;;7.87;100.00
72061;BME280;59925;52.136;5.420;2024-03-23T08:08:55;100987.16;;;7.82;100.00
72061;BME280;59925;52.136;5.420;2024-03-23T08:11:29;100989.84;;;7.82;99.94
72061;BME280;59925;52.136;5.420;2024-03-23T08:13:55;100982.66;;;7.83;100.00
72061;BME280;59925;52.136;5.420;2024-03-23T08:16:21;100976.13;;;7.74;99.04
72061;BME280;59925;52.136;5.420;2024-03-23T08:18:47;100979.44;;;8.03;98.74
72061;BME280;59925;52.136;5.420;2024-03-23T08:21:12;100982.53;;;8.17;98.90
72061;BME280;59925;52.136;5.420;2024-03-23T08:23:38;100979.97;;;8.27;97.87
72061;BME280;59925;52.136;5.420;2024-03-23T08:26:10;100988.72;;;8.23;96.70
72061;BME280;59925;52.136;5.420;2024-03-23T08:28:37;100990.78;;;8.16;96.16
72061;BME280;59925;52.136;5.420;2024-03-23T08:31:10;100992.66;;;8.15;96.46
72061;BME280;59925;52.136;5.420;2024-03-23T08:33:37;100991.28;;;8.12;93.20
72061;BME280;59925;52.136;5.420;2024-03-23T08:36:05;101002.41;;;8.04;93.61
72061;BME280;59925;52.136;5.420;2024-03-23T08:38:31;100996.19;;;7.98;91.06
72061;BME280;59925;52.136;5.420;2024-03-23T08:41:04;100998.84;;;7.76;91.26
72061;BME280;59925;52.136;5.420;2024-03-23T08:43:32;100989.53;;;7.79;91.96
72061;BME280;59925;52.136;5.420;2024-03-23T08:46:09;100998.41;;;7.85;92.50
72061;BME280;59925;52.136;5.420;2024-03-23T08:48:35;101004.97;;;7.94;91.44
72061;BME280;59925;52.136;5.420;2024-03-23T08:53:30;100991.75;;;7.65;93.18
72061;BME280;59925;52.136;5.420;2024-03-23T08:55:56;100997.50;;;7.57;94.69
72061;BME280;59925;52.136;5.420;2024-03-23T08:58:24;100996.31;;;7.47;95.07
72061;BME280;59925;52.136;5.420;2024-03-23T09:00:54;100999.06;;;7.53;94.56
72061;BME280;59925;52.136;5.420;2024-03-23T09:03:23;100989.03;;;7.43;92.60
72061;BME280;59925;52.136;5.420;2024-03-23T09:05:49;100994.56;;;7.19;88.61
72061;BME280;59925;52.136;5.420;2024-03-23T09:08:14;100988.97;;;7.03;89.56
72061;BME280;59925;52.136;5.420;2024-03-23T09:10:41;100981.75;;;7.04;90.14
72061;BME280;59925;52.136;5.420;2024-03-23T09:13:07;100997.03;;;7.09;90.78
72061;BME280;59925;52.136;5.420;2024-03-23T09:15:34;101001.72;;;7.18;90.87
72061;BME280;59925;52.136;5.420;2024-03-23T09:18:00;100998.00;;;7.19;91.38
72061;BME280;59925;52.136;5.420;2024-03-23T09:20:25;100990.91;;;7.08;91.53
72061;BME280;59925;52.136;5.420;2024-03-23T09:22:51;100999.69;;;6.92;91.10
72061;BME280;59925;52.136;5.420;2024-03-23T09:25:17;101001.03;;;6.77;91.53
72061;BME280;59925;52.136;5.420;2024-03-23T09:27:42;100999.84;;;6.56;93.54
72061;BME280;59925;52.136;5.420;2024-03-23T09:30:08;100992.00;;;6.49;95.76
72061;BME280;59925;52.136;5.420;2024-03-23T09:32:35;100985.00;;;6.43;97.15
72061;BME280;59925;52.136;5.420;2024-03-23T09:35:00;100989.41;;;6.37;98.31
72061;BME280;59925;52.136;5.420;2024-03-23T09:37:26;100992.06;;;6.37;98.49
72061;BME280;59925;52.136;5.420;2024-03-23T09:39:52;100984.81;;;6.33;98.67
72061;BME280;59925;52.136;5.420;2024-03-23T09:42:17;100983.19;;;6.32;98.86
72061;BME280;59925;52.136;5.420;2024-03-23T09:44:43;100987.53;;;6.38;99.58
72061;BME280;59925;52.136;5.420;2024-03-23T09:47:09;100999.94;;;6.32;100.00
72061;BME280;59925;52.136;5.420;2024-03-23T09:49:35;100993.84;;;6.20;100.00
72061;BME280;59925;52.136;5.420;2024-03-23T09:52:02;100989.84;;;6.05;100.00
72061;BME280;59925;52.136;5.420;2024-03-23T09:54:28;100982.44;;;5.95;100.00
72061;BME280;59925;52.136;5.420;2024-03-23T09:56:54;100985.94;;;6.37;100.00
72061;BME280;59925;52.136;5.420;2024-03-23T09:59:19;100975.88;;;7.02;100.00
72061;BME280;59925;52.136;5.420;2024-03-23T10:01:45;100970.41;;;7.48;100.00
72061;BME280;59925;52.136;5.420;2024-03-23T10:04:10;100964.34;;;7.92;100.00
72061;BME280;59925;52.136;5.420;2024-03-23T10:06:37;100957.09;;;8.37;100.00
72061;BME280;59925;52.136;5.420;2024-03-23T10:09:16;100959.66;;;8.76;100.00
72061;BME280;59925;52.136;5.420;2024-03-23T10:11:43;100957.63;;;8.88;97.18
72061;BME280;59925;52.136;5.420;2024-03-23T10:14:28;100951.47;;;9.26;97.32
72061;BME280;59925;52.136;5.420;2024-03-23T10:16:54;100955.16;;;9.62;96.91
72061;BME280;59925;52.136;5.420;2024-03-23T10:19:31;100952.03;;;9.33;94.67
72061;BME280;59925;52.136;5.420;2024-03-23T10:21:56;100948.59;;;9.00;91.47
72061;BME280;59925;52.136;5.420;2024-03-23T10:24:22;100943.75;;;8.92;91.17
72061;BME280;59925;52.136;5.420;2024-03-23T10:26:56;100959.31;;;9.00;91.55
72061;BME280;59925;52.136;5.420;2024-03-23T10:29:21;100966.72;;;9.25;89.82
72061;BME280;59925;52.136;5.420;2024-03-23T10:31:47;100969.25;;;9.47;87.77
72061;BME280;59925;52.136;5.420;2024-03-23T10:34:12;100959.38;;;9.53;84.30
72061;BME280;59925;52.136;5.420;2024-03-23T10:36:39;100959.81;;;9.88;85.34
72061;BME280;59925;52.136;5.420;2024-03-23T10:39:07;100955.59;;;10.02;83.93
72061;BME280;59925;52.136;5.420;2024-03-23T10:41:33;100961.09;;;10.38;85.53
72061;BME280;59925;52.136;5.420;2024-03-23T10:44:01;100948.81;;;10.63;82.32
72061;BME280;59925;52.136;5.420;2024-03-23T10:46:27;100937.25;;;11.04;83.09
72061;BME280;59925;52.136;5.420;2024-03-23T10:48:53;100953.63;;;10.87;80.46
72061;BME280;59925;52.136;5.420;2024-03-23T10:51:18;100956.72;;;10.11;76.11
72061;BME280;59925;52.136;5.420;2024-03-23T10:53:44;100968.78;;;9.56;75.68
72061;BME280;59925;52.136;5.420;2024-03-23T10:56:12;100979.16;;;9.09;79.35
72061;BME280;59925;52.136;5.420;2024-03-23T10:58:42;100983.09;;;8.69;82.74
72061;BME280;59925;52.136;5.420;2024-03-23T11:01:12;100984.97;;;8.46;85.59
72061;BME280;59925;52.136;5.420;2024-03-23T11:03:39;100973.69;;;8.39;87.18
72061;BME280;59925;52.136;5.420;2024-03-23T11:06:10;100960.84;;;8.63;88.40
72061;BME280;59925;52.136;5.420;2024-03-23T11:08:40;100959.72;;;9.19;89.02
72061;BME280;59925;52.136;5.420;2024-03-23T11:11:20;100969.69;;;9.82;88.43
72061;BME280;59925;52.136;5.420;2024-03-23T11:13:52;100964.38;;;9.87;87.36
72061;BME280;59925;52.136;5.420;2024-03-23T11:16:28;100955.34;;;10.09;87.04
72061;BME280;59925;52.136;5.420;2024-03-23T11:19:35;100943.56;;;10.10;85.08
72061;BME280;59925;52.136;5.420;2024-03-23T11:22:04;100959.88;;;9.45;82.07
72061;BME280;59925;52.136;5.420;2024-03-23T11:24:33;100953.06;;;8.89;80.23
72061;BME280;59925;52.136;5.420;2024-03-23T11:27:00;100967.22;;;8.57;79.33
72061;BME280;59925;52.136;5.420;2024-03-23T11:29:27;100956.84;;;8.38;80.61
72061;BME280;59925;52.136;5.420;2024-03-23T11:31:53;100962.31;;;8.49;81.93
72061;BME280;59925;52.136;5.420;2024-03-23T11:34:22;100959.94;;;9.12;82.73
72061;BME280;59925;52.136;5.420;2024-03-23T11:36:48;100940.25;;;9.82;81.07
72061;BME280;59925;52.136;5.420;2024-03-23T11:41:52;100936.72;;;10.61;77.73
72061;BME280;59925;52.136;5.420;2024-03-23T11:46:44;100944.19;;;11.26;76.68
72061;BME280;59925;52.136;5.420;2024-03-23T11:49:29;100929.38;;;11.54;74.18
72061;BME280;59925;52.136;5.420;2024-03-23T11:51:56;100932.56;;;11.61;70.52
72061;BME280;59925;52.136;5.420;2024-03-23T11:54:23;100929.97;;;11.20;67.25
72061;BME280;59925;52.136;5.420;2024-03-23T11:57:00;100931.63;;;10.69;68.46
72061;BME280;59925;52.136;5.420;2024-03-23T11:59:36;100937.66;;;10.08;68.43
72061;BME280;59925;52.136;5.420;2024-03-23T12:02:10;100931.13;;;9.73;70.38
72061;BME280;59925;52.136;5.420;2024-03-23T12:04:37;100929.78;;;9.70;71.17
72061;BME280;59925;52.136;5.420;2024-03-23T12:07:13;100940.72;;;9.63;69.97
72061;BME280;59925;52.136;5.420;2024-03-23T12:09:39;100927.38;;;9.74;71.16
72061;BME280;59925;52.136;5.420;2024-03-23T12:14:33;100936.44;;;9.62;70.44
72061;BME280;59925;52.136;5.420;2024-03-23T12:17:10;100929.06;;;9.37;70.47
72061;BME280;59925;52.136;5.420;2024-03-23T12:19:36;100923.47;;;9.39;71.68
72061;BME280;59925;52.136;5.420;2024-03-23T12:22:03;100927.66;;;9.72;71.93
72061;BME280;59925;52.136;5.420;2024-03-23T12:24:29;100913.56;;;10.13;71.05
72061;BME280;59925;52.136;5.420;2024-03-23T12:26:55;100904.03;;;10.79;71.86
72061;BME280;59925;52.136;5.420;2024-03-23T12:29:20;100898.88;;;11.14;69.85
72061;BME280;59925;52.136;5.420;2024-03-23T12:31:46;100891.69;;;10.63;66.33
72061;BME280;59925;52.136;5.420;2024-03-23T12:34:11;100916.81;;;10.25;66.97
72061;BME280;59925;52.136;5.420;2024-03-23T12:36:37;100911.28;;;9.63;64.64
72061;BME280;59925;52.136;5.420;2024-03-23T12:39:02;100907.59;;;9.85;66.24
72061;BME280;59925;52.136;5.420;2024-03-23T12:41:28;100907.97;;;10.30;66.39
72061;BME280;59925;52.136;5.420;2024-03-23T12:43:53;100907.22;;;10.86;66.71
72061;BME280;59925;52.136;5.420;2024-03-23T12:46:19;100890.81;;;11.24;65.82
72061;BME280;59925;52.136;5.420;2024-03-23T12:48:45;100877.53;;;11.59;63.88
72061;BME280;59925;52.136;5.420;2024-03-23T12:51:10;100900.09;;;11.58;64.74
72061;BME280;59925;52.136;5.420;2024-03-23T12:53:36;100894.31;;;11.19;64.77
72061;BME280;59925;52.136;5.420;2024-03-23T12:56:01;100903.47;;;10.62;65.54
72061;BME280;59925;52.136;5.420;2024-03-23T12:58:27;100907.53;;;10.64;66.10
72061;BME280;59925;52.136;5.420;2024-03-23T13:00:52;100900.00;;;10.46;63.40
72061;BME280;59925;52.136;5.420;2024-03-23T13:03:18;100903.91;;;10.02;65.85
72061;BME280;59925;52.136;5.420;2024-03-23T13:05:43;100897.09;;;9.73;65.49
72061;BME280;59925;52.136;5.420;2024-03-23T13:08:09;100899.97;;;9.56;66.89
72061;BME280;59925;52.136;5.420;2024-03-23T13:10:34;100899.34;;;9.33;66.17
72061;BME280;59925;52.136;5.420;2024-03-23T13:13:00;100900.06;;;9.18;65.74
72061;BME280;59925;52.136;5.420;2024-03-23T13:15:25;100905.78;;;9.38;66.88
72061;BME280;59925;52.136;5.420;2024-03-23T13:17:51;100899.00;;;9.73;66.13
72061;BME280;59925;52.136;5.420;2024-03-23T13:20:17;100898.03;;;10.05;66.19
72061;BME280;59925;52.136;5.420;2024-03-23T13:22:43;100879.84;;;10.17;64.67
72061;BME280;59925;52.136;5.420;2024-03-23T13:25:08;100914.53;;;9.81;64.65
72061;BME280;59925;52.136;5.420;2024-03-23T13:27:34;100923.47;;;9.39;66.79
72061;BME280;59925;52.136;5.420;2024-03-23T13:29:59;100927.44;;;8.93;67.69
72061;BME280;59925;52.136;5.420;2024-03-23T13:32:25;100933.78;;;8.54;69.74
72061;BME280;59925;52.136;5.420;2024-03-23T13:34:50;100926.13;;;8.41;71.52
72061;BME280;59925;52.136;5.420;2024-03-23T13:37:16;100911.56;;;8.49;72.96
72061;BME280;59925;52.136;5.420;2024-03-23T13:39:42;100900.44;;;8.62;73.10
72061;BME280;59925;52.136;5.420;2024-03-23T13:42:07;100900.63;;;8.83;72.19
72061;BME280;59925;52.136;5.420;2024-03-23T13:44:34;100906.63;;;9.43;71.94
72061;BME280;59925;52.136;5.420;2024-03-23T13:47:00;100897.53;;;10.28;70.11
72061;BME280;59925;52.136;5.420;2024-03-23T13:49:29;100893.28;;;10.74;69.52
72061;BME280;59925;52.136;5.420;2024-03-23T13:51:57;100897.06;;;10.68;67.29
72061;BME280;59925;52.136;5.420;2024-03-23T13:54:28;100896.44;;;10.14;66.44